createdAt,value
2018-09-17T00:00:59.715Z,18.10
2018-09-17T00:02:03.864Z,18.10
2018-09-17T00:03:08.179Z,18.10
2018-09-17T00:04:12.874Z,18.10
2018-09-17T00:05:17.161Z,18.10
2018-09-17T00:06:21.763Z,18.10
2018-09-17T00:07:26.403Z,18.10
2018-09-17T00:08:30.745Z,18.10
2018-09-17T00:09:35.080Z,18.10
2018-09-17T00:10:39.399Z,18.00
2018-09-17T00:11:43.731Z,18.10
2018-09-17T00:12:48.153Z,18.10
2018-09-17T00:13:52.654Z,18.10
2018-09-17T00:14:57.273Z,18.10
2018-09-17T00:16:01.712Z,18.10
2018-09-17T00:17:05.824Z,18.10
2018-09-17T00:18:10.283Z,18.10
2018-09-17T00:19:14.424Z,18.10
2018-09-17T00:20:19.016Z,18.10
2018-09-17T00:21:23.552Z,18.10
2018-09-17T00:22:27.646Z,18.10
2018-09-17T00:23:32.001Z,18.10
2018-09-17T00:24:36.452Z,18.10
2018-09-17T00:25:41.164Z,18.10
2018-09-17T00:26:45.536Z,18.10
2018-09-17T00:27:49.795Z,18.10
2018-09-17T00:28:53.993Z,18.10
2018-09-17T00:29:58.371Z,18.10
2018-09-17T00:31:02.768Z,18.10
2018-09-17T00:32:07.826Z,18.20
2018-09-17T00:33:12.530Z,18.20
2018-09-17T00:34:16.739Z,18.20
2018-09-17T00:36:22.916Z,18.20
2018-09-17T00:37:27.247Z,18.20
2018-09-17T00:38:31.450Z,18.20
2018-09-17T00:39:35.951Z,18.20
2018-09-17T00:40:40.389Z,18.10
2018-09-17T00:41:44.794Z,18.10
2018-09-17T00:42:49.118Z,18.10
2018-09-17T00:43:53.463Z,18.10
2018-09-17T00:44:57.893Z,18.10
2018-09-17T00:46:02.411Z,18.10
2018-09-17T00:47:06.958Z,18.10
2018-09-17T00:48:11.348Z,18.10
2018-09-17T00:49:15.597Z,18.10
2018-09-17T00:50:19.856Z,18.00
2018-09-17T00:51:24.304Z,18.00
2018-09-17T00:52:28.662Z,18.00
2018-09-17T00:53:33.049Z,18.00
2018-09-17T00:54:37.460Z,18.00
2018-09-17T00:55:41.846Z,17.90
2018-09-17T00:56:46.315Z,18.00
2018-09-17T00:57:50.520Z,18.00
2018-09-17T00:58:54.844Z,18.00
2018-09-17T00:59:59.254Z,18.00
2018-09-17T01:01:03.551Z,18.10
2018-09-17T01:02:08.109Z,18.00
2018-09-17T01:03:12.686Z,18.00
2018-09-17T01:04:17.114Z,18.00
2018-09-17T01:05:21.312Z,18.00
2018-09-17T01:06:25.637Z,17.90
2018-09-17T01:07:29.988Z,17.90
2018-09-17T01:08:34.387Z,17.90
2018-09-17T01:09:41.757Z,17.90
2018-09-17T01:10:45.846Z,17.90
2018-09-17T01:11:50.441Z,17.90
2018-09-17T01:12:54.586Z,17.80
2018-09-17T01:13:58.957Z,17.90
2018-09-17T01:15:03.235Z,17.80
2018-09-17T01:16:07.569Z,17.80
2018-09-17T01:17:12.122Z,17.80
2018-09-17T01:18:16.358Z,17.80
2018-09-17T01:19:20.489Z,17.80
2018-09-17T01:20:24.769Z,17.80
2018-09-17T01:21:29.080Z,17.80
2018-09-17T01:23:08.140Z,17.80
2018-09-17T01:24:12.512Z,17.80
2018-09-17T01:25:16.689Z,17.80
2018-09-17T01:26:21.169Z,17.80
2018-09-17T01:27:25.738Z,17.80
2018-09-17T01:28:30.168Z,17.70
2018-09-17T01:29:34.512Z,17.80
2018-09-17T01:30:38.803Z,17.70
2018-09-17T01:31:43.316Z,17.80
2018-09-17T01:32:47.790Z,17.90
2018-09-17T01:33:52.008Z,17.80
2018-09-17T01:34:56.237Z,17.80
2018-09-17T01:36:00.579Z,17.80
2018-09-17T01:37:04.728Z,17.80
2018-09-17T01:38:09.082Z,17.80
2018-09-17T01:39:13.365Z,17.80
2018-09-17T01:40:17.605Z,17.80
2018-09-17T01:41:21.916Z,17.80
2018-09-17T01:42:26.164Z,17.80
2018-09-17T01:43:30.478Z,17.80
2018-09-17T01:44:34.664Z,17.80
2018-09-17T01:45:39.197Z,17.80
2018-09-17T01:46:43.965Z,17.80
2018-09-17T01:47:48.345Z,17.80
2018-09-17T01:48:52.584Z,17.80
2018-09-17T01:49:57.047Z,17.80
2018-09-17T01:51:01.654Z,17.70
2018-09-17T01:52:05.996Z,17.70
2018-09-17T01:53:10.199Z,17.70
2018-09-17T01:54:14.553Z,17.70
2018-09-17T01:55:18.826Z,17.60
2018-09-17T01:56:23.244Z,17.60
2018-09-17T01:57:27.638Z,17.60
2018-09-17T01:58:31.859Z,17.60
2018-09-17T01:59:36.308Z,17.60
2018-09-17T02:00:40.704Z,17.60
2018-09-17T02:01:45.544Z,17.50
2018-09-17T02:02:49.689Z,17.50
2018-09-17T02:03:53.954Z,17.50
2018-09-17T02:04:58.403Z,17.50
2018-09-17T02:06:02.794Z,17.50
2018-09-17T02:07:07.634Z,17.50
2018-09-17T02:08:12.137Z,17.50
2018-09-17T02:09:16.434Z,17.50
2018-09-17T02:10:20.611Z,17.50
2018-09-17T02:11:25.015Z,17.50
2018-09-17T02:12:29.635Z,17.50
2018-09-17T02:13:34.226Z,17.40
2018-09-17T02:14:38.620Z,17.40
2018-09-17T02:15:43.209Z,17.40
2018-09-17T02:16:47.707Z,17.40
2018-09-17T02:17:51.962Z,17.40
2018-09-17T02:18:56.504Z,17.40
2018-09-17T02:20:00.763Z,17.40
2018-09-17T02:21:05.406Z,17.30
2018-09-17T02:22:10.305Z,17.30
2018-09-17T02:23:14.427Z,17.40
2018-09-17T02:24:18.715Z,17.40
2018-09-17T02:25:23.146Z,17.40
2018-09-17T02:26:27.522Z,17.40
2018-09-17T02:27:32.145Z,17.40
2018-09-17T02:28:36.835Z,17.30
2018-09-17T02:29:41.531Z,17.30
2018-09-17T02:30:45.913Z,17.30
2018-09-17T02:31:50.061Z,17.30
2018-09-17T02:32:54.412Z,17.30
2018-09-17T02:33:59.121Z,17.30
2018-09-17T02:35:03.484Z,17.30
2018-09-17T02:36:08.077Z,17.30
2018-09-17T02:37:12.631Z,17.30
2018-09-17T02:38:17.793Z,17.30
2018-09-17T02:39:22.540Z,17.30
2018-09-17T02:40:26.936Z,17.30
2018-09-17T02:41:31.323Z,17.30
2018-09-17T02:42:35.766Z,17.40
2018-09-17T02:43:40.051Z,17.40
2018-09-17T02:44:44.840Z,17.40
2018-09-17T02:45:49.098Z,17.40
2018-09-17T02:46:53.430Z,17.30
2018-09-17T02:47:57.713Z,17.40
2018-09-17T02:49:01.989Z,17.40
2018-09-17T02:50:06.559Z,17.40
2018-09-17T02:51:10.985Z,17.40
2018-09-17T02:52:15.363Z,17.30
2018-09-17T02:53:19.816Z,17.30
2018-09-17T02:54:24.422Z,17.30
2018-09-17T02:55:28.522Z,17.30
2018-09-17T02:56:32.905Z,17.30
2018-09-17T02:57:38.166Z,17.30
2018-09-17T02:58:42.869Z,17.20
2018-09-17T02:59:47.483Z,17.20
2018-09-17T03:00:52.133Z,17.20
2018-09-17T03:01:56.676Z,17.20
2018-09-17T03:03:01.171Z,17.20
2018-09-17T03:04:05.610Z,17.20
2018-09-17T03:05:09.890Z,17.20
2018-09-17T03:06:14.167Z,17.20
2018-09-17T03:07:18.419Z,17.20
2018-09-17T03:08:22.727Z,17.20
2018-09-17T03:10:29.600Z,17.20
2018-09-17T03:11:33.976Z,17.20
2018-09-17T03:12:38.617Z,17.10
2018-09-17T03:13:43.181Z,17.20
2018-09-17T03:14:47.712Z,17.20
2018-09-17T03:15:55.706Z,17.10
2018-09-17T03:17:09.401Z,17.10
2018-09-17T03:18:13.546Z,17.10
2018-09-17T03:19:18.394Z,17.10
2018-09-17T03:20:22.635Z,17.10
2018-09-17T03:21:27.222Z,17.10
2018-09-17T03:22:31.483Z,17.10
2018-09-17T03:23:38.085Z,17.10
2018-09-17T03:24:42.781Z,17.10
2018-09-17T03:25:47.177Z,17.10
2018-09-17T03:26:51.427Z,17.10
2018-09-17T03:27:55.771Z,17.10
2018-09-17T03:29:00.180Z,17.10
2018-09-17T03:30:04.680Z,17.10
2018-09-17T03:31:08.960Z,17.10
2018-09-17T03:32:13.336Z,17.00
2018-09-17T03:33:17.594Z,17.00
2018-09-17T03:34:22.136Z,17.00
2018-09-17T03:35:26.804Z,17.00
2018-09-17T03:36:31.229Z,17.00
2018-09-17T03:37:35.748Z,17.00
2018-09-17T03:38:43.917Z,17.00
2018-09-17T03:39:48.326Z,17.00
2018-09-17T03:40:52.612Z,17.00
2018-09-17T03:41:56.867Z,17.00
2018-09-17T03:43:01.227Z,16.90
2018-09-17T03:44:05.538Z,16.90
2018-09-17T03:45:09.850Z,16.90
2018-09-17T03:46:14.353Z,16.90
2018-09-17T03:47:18.860Z,16.90
2018-09-17T03:48:23.027Z,16.90
2018-09-17T03:49:27.238Z,16.80
2018-09-17T03:50:31.703Z,16.80
2018-09-17T03:51:36.236Z,16.80
2018-09-17T03:52:40.698Z,16.80
2018-09-17T03:53:44.963Z,16.80
2018-09-17T03:54:49.417Z,16.80
2018-09-17T03:55:53.749Z,16.80
2018-09-17T03:56:57.859Z,16.80
2018-09-17T03:58:01.964Z,16.80
2018-09-17T03:59:58.139Z,16.80
2018-09-17T04:01:43.639Z,16.80
2018-09-17T04:02:48.001Z,16.80
2018-09-17T04:04:52.949Z,16.80
2018-09-17T04:05:57.341Z,16.90
2018-09-17T04:07:01.731Z,16.90
2018-09-17T04:08:05.897Z,16.90
2018-09-17T04:09:10.220Z,16.90
2018-09-17T04:10:14.255Z,17.00
2018-09-17T04:11:18.610Z,17.00
2018-09-17T04:12:22.875Z,16.90
2018-09-17T04:13:27.064Z,16.90
2018-09-17T04:14:31.533Z,16.90
2018-09-17T04:15:35.946Z,16.90
2018-09-17T04:16:40.043Z,17.00
2018-09-17T04:17:44.599Z,16.90
2018-09-17T04:18:48.999Z,17.00
2018-09-17T04:19:53.376Z,17.00
2018-09-17T04:20:57.643Z,17.00
2018-09-17T04:22:02.030Z,17.00
2018-09-17T04:23:06.425Z,17.00
2018-09-17T04:24:10.717Z,17.00
2018-09-17T04:25:15.860Z,17.00
2018-09-17T04:26:20.172Z,17.00
2018-09-17T04:27:24.461Z,17.00
2018-09-17T04:28:28.766Z,17.00
2018-09-17T04:29:33.329Z,17.00
2018-09-17T04:30:37.968Z,17.00
2018-09-17T04:31:42.420Z,17.10
2018-09-17T04:32:46.739Z,17.10
2018-09-17T04:33:50.944Z,17.00
2018-09-17T04:34:55.155Z,16.90
2018-09-17T04:35:59.833Z,17.00
2018-09-17T04:37:04.385Z,16.90
2018-09-17T04:38:08.963Z,16.90
2018-09-17T04:39:14.989Z,16.90
2018-09-17T04:40:19.536Z,16.90
2018-09-17T04:41:23.789Z,16.90
2018-09-17T04:42:28.226Z,16.90
2018-09-17T04:43:32.490Z,16.90
2018-09-17T04:44:37.065Z,16.90
2018-09-17T04:45:41.719Z,16.90
2018-09-17T04:46:45.890Z,16.90
2018-09-17T04:47:50.325Z,16.90
2018-09-17T04:48:54.629Z,16.90
2018-09-17T04:49:58.882Z,16.90
2018-09-17T04:51:03.315Z,16.90
2018-09-17T04:52:07.540Z,16.90
2018-09-17T04:53:11.664Z,16.90
2018-09-17T04:54:15.981Z,16.90
2018-09-17T04:55:20.334Z,16.90
2018-09-17T04:56:24.560Z,16.90
2018-09-17T04:57:29.014Z,16.90
2018-09-17T04:58:33.291Z,16.90
2018-09-17T04:59:37.828Z,16.90
2018-09-17T05:00:42.296Z,16.90
2018-09-17T05:01:46.479Z,16.90
2018-09-17T05:02:50.708Z,16.90
2018-09-17T05:03:55.029Z,16.90
2018-09-17T05:04:59.347Z,16.90
2018-09-17T05:06:03.844Z,16.90
2018-09-17T05:07:08.109Z,16.90
2018-09-17T05:08:12.204Z,16.90
2018-09-17T05:09:16.566Z,16.90
2018-09-17T05:10:20.741Z,16.80
2018-09-17T05:11:25.267Z,16.80
2018-09-17T05:12:29.444Z,16.80
2018-09-17T05:13:33.919Z,16.90
2018-09-17T05:14:38.516Z,16.80
2018-09-17T05:15:42.743Z,16.80
2018-09-17T05:16:46.983Z,16.90
2018-09-17T05:17:51.412Z,16.90
2018-09-17T05:18:55.518Z,16.90
2018-09-17T05:19:59.906Z,16.90
2018-09-17T05:21:04.309Z,16.90
2018-09-17T05:22:08.799Z,16.90
2018-09-17T05:23:13.237Z,16.90
2018-09-17T05:24:17.548Z,16.90
2018-09-17T05:25:21.694Z,16.90
2018-09-17T05:26:25.946Z,16.90
2018-09-17T05:27:30.209Z,16.90
2018-09-17T05:28:34.575Z,16.90
2018-09-17T05:29:38.992Z,16.90
2018-09-17T05:30:43.296Z,16.90
2018-09-17T05:31:47.674Z,17.00
2018-09-17T05:32:52.005Z,17.00
2018-09-17T05:33:56.173Z,17.00
2018-09-17T05:35:00.563Z,17.00
2018-09-17T05:36:04.996Z,17.10
2018-09-17T05:37:09.228Z,17.10
2018-09-17T05:38:13.866Z,17.10
2018-09-17T05:39:18.494Z,17.10
2018-09-17T05:40:22.959Z,17.10
2018-09-17T05:41:27.499Z,17.10
2018-09-17T05:42:32.206Z,17.10
2018-09-17T05:43:36.587Z,17.00
2018-09-17T05:44:41.148Z,17.00
2018-09-17T05:45:45.752Z,17.00
2018-09-17T05:46:50.189Z,17.00
2018-09-17T05:47:54.622Z,17.00
2018-09-17T05:48:59.319Z,17.00
2018-09-17T05:50:03.550Z,17.10
2018-09-17T05:51:07.911Z,17.10
2018-09-17T05:52:12.249Z,17.10
2018-09-17T05:53:16.680Z,17.10
2018-09-17T05:54:21.013Z,17.10
2018-09-17T05:55:25.603Z,17.10
2018-09-17T05:56:29.872Z,17.10
2018-09-17T05:57:34.162Z,17.10
2018-09-17T05:58:38.560Z,17.10
2018-09-17T05:59:43.161Z,17.20
2018-09-17T06:00:47.593Z,17.10
2018-09-17T06:01:52.008Z,17.10
2018-09-17T06:02:57.393Z,17.10
2018-09-17T06:04:01.844Z,17.10
2018-09-17T06:05:06.299Z,17.10
2018-09-17T06:06:10.645Z,17.20
2018-09-17T06:07:15.221Z,17.20
2018-09-17T06:08:19.584Z,17.10
2018-09-17T06:09:24.692Z,17.10
2018-09-17T06:10:28.869Z,17.10
2018-09-17T06:11:33.288Z,17.10
2018-09-17T06:12:37.744Z,17.10
2018-09-17T06:13:41.926Z,17.10
2018-09-17T06:14:46.136Z,17.10
2018-09-17T06:15:50.256Z,17.10
2018-09-17T06:16:54.359Z,17.20
2018-09-17T06:17:58.706Z,17.10
2018-09-17T06:19:02.930Z,17.10
2018-09-17T06:20:07.276Z,17.10
2018-09-17T06:21:11.637Z,17.10
2018-09-17T06:22:15.887Z,17.20
2018-09-17T06:23:20.351Z,17.20
2018-09-17T06:24:24.551Z,17.20
2018-09-17T06:25:29.054Z,17.20
2018-09-17T06:26:33.852Z,17.20
2018-09-17T06:27:38.167Z,17.20
2018-09-17T06:28:42.313Z,17.20
2018-09-17T06:29:46.699Z,17.20
2018-09-17T06:30:51.180Z,17.20
2018-09-17T06:31:55.550Z,17.20
2018-09-17T06:33:00.133Z,17.20
2018-09-17T06:34:05.318Z,17.20
2018-09-17T06:35:09.550Z,17.20
2018-09-17T06:36:14.067Z,17.20
2018-09-17T06:37:18.649Z,17.20
2018-09-17T06:38:22.761Z,17.10
2018-09-17T06:39:27.137Z,17.10
2018-09-17T06:40:31.672Z,17.10
2018-09-17T06:41:35.941Z,17.10
2018-09-17T06:42:40.226Z,17.10
2018-09-17T06:43:44.753Z,17.10
2018-09-17T06:44:49.383Z,17.10
2018-09-17T06:45:53.671Z,17.20
2018-09-17T06:46:58.349Z,17.20
2018-09-17T06:48:02.801Z,17.20
2018-09-17T06:49:07.153Z,17.30
2018-09-17T06:50:11.962Z,17.30
2018-09-17T06:51:16.448Z,17.40
2018-09-17T06:52:20.690Z,17.40
2018-09-17T06:53:25.057Z,17.40
2018-09-17T06:54:29.158Z,17.40
2018-09-17T06:55:33.765Z,17.40
2018-09-17T06:56:38.108Z,17.50
2018-09-17T06:57:42.427Z,17.50
2018-09-17T06:58:47.352Z,17.50
2018-09-17T06:59:51.833Z,17.60
2018-09-17T07:00:56.357Z,17.60
2018-09-17T07:02:00.644Z,17.70
2018-09-17T07:03:05.158Z,17.60
2018-09-17T07:04:09.505Z,17.60
2018-09-17T07:05:13.915Z,17.60
2018-09-17T07:06:18.406Z,17.70
2018-09-17T07:07:22.818Z,17.80
2018-09-17T07:08:27.093Z,17.80
2018-09-17T07:09:31.664Z,17.90
2018-09-17T07:10:35.969Z,17.90
2018-09-17T07:11:40.274Z,17.90
2018-09-17T07:12:44.393Z,18.00
2018-09-17T07:13:48.826Z,18.00
2018-09-17T07:14:53.063Z,18.00
2018-09-17T07:15:57.712Z,18.00
2018-09-17T07:17:02.019Z,18.00
2018-09-17T07:18:06.405Z,18.10
2018-09-17T07:19:10.839Z,18.10
2018-09-17T07:20:14.968Z,18.20
2018-09-17T07:21:19.349Z,18.20
2018-09-17T07:22:23.749Z,18.30
2018-09-17T07:23:28.178Z,18.30
2018-09-17T07:24:32.556Z,18.30
2018-09-17T07:25:36.802Z,18.30
2018-09-17T07:26:41.291Z,18.30
2018-09-17T07:27:45.711Z,18.30
2018-09-17T07:28:50.060Z,18.30
2018-09-17T07:29:54.409Z,18.40
2018-09-17T07:30:58.990Z,18.40
2018-09-17T07:32:03.313Z,18.50
2018-09-17T07:33:07.867Z,18.50
2018-09-17T07:34:12.109Z,18.50
2018-09-17T07:35:16.490Z,18.50
2018-09-17T07:36:21.006Z,18.60
2018-09-17T07:37:25.368Z,18.70
2018-09-17T07:38:29.674Z,18.70
2018-09-17T07:39:33.804Z,18.70
2018-09-17T07:40:38.012Z,18.60
2018-09-17T07:41:42.094Z,18.70
2018-09-17T07:42:46.218Z,18.70
2018-09-17T07:43:50.740Z,18.80
2018-09-17T07:44:55.277Z,18.80
2018-09-17T07:45:59.321Z,18.80
2018-09-17T07:47:03.480Z,18.80
2018-09-17T07:48:07.993Z,18.80
2018-09-17T07:49:12.400Z,18.80
2018-09-17T07:50:16.693Z,18.80
2018-09-17T07:51:21.029Z,18.90
2018-09-17T07:52:25.468Z,18.90
2018-09-17T07:53:29.646Z,19.00
2018-09-17T07:54:33.829Z,19.00
2018-09-17T07:55:38.208Z,19.00
2018-09-17T07:56:42.600Z,19.00
2018-09-17T07:57:46.787Z,19.00
2018-09-17T07:58:51.264Z,19.00
2018-09-17T07:59:55.734Z,19.00
2018-09-17T08:01:00.281Z,19.00
2018-09-17T08:02:04.695Z,19.10
2018-09-17T08:03:08.998Z,19.10
2018-09-17T08:04:13.246Z,19.20
2018-09-17T08:05:17.595Z,19.20
2018-09-17T08:06:22.281Z,19.20
2018-09-17T08:07:26.625Z,19.30
2018-09-17T08:08:31.101Z,19.20
2018-09-17T08:09:35.430Z,19.30
2018-09-17T08:10:39.758Z,19.30
2018-09-17T08:11:44.353Z,19.30
2018-09-17T08:12:49.219Z,19.30
2018-09-17T08:13:53.424Z,19.40
2018-09-17T08:14:57.690Z,19.40
2018-09-17T08:16:01.770Z,19.50
2018-09-17T08:17:06.212Z,19.40
2018-09-17T08:18:10.528Z,19.50
2018-09-17T08:19:14.737Z,19.50
2018-09-17T08:20:18.932Z,19.60
2018-09-17T08:21:23.162Z,19.50
2018-09-17T08:22:27.269Z,19.60
2018-09-17T08:23:31.453Z,19.60
2018-09-17T08:24:35.882Z,19.70
2018-09-17T08:25:40.031Z,19.80
2018-09-17T08:26:44.135Z,19.80
2018-09-17T08:27:48.647Z,19.70
2018-09-17T08:28:53.399Z,19.80
2018-09-17T08:29:58.027Z,19.80
2018-09-17T08:31:02.370Z,19.80
2018-09-17T08:32:06.799Z,19.80
2018-09-17T08:33:11.106Z,19.80
2018-09-17T08:34:15.774Z,19.80
2018-09-17T08:35:20.068Z,19.90
2018-09-17T08:36:24.541Z,19.90
2018-09-17T08:37:29.046Z,19.90
2018-09-17T08:38:33.345Z,19.90
2018-09-17T08:39:37.732Z,19.90
2018-09-17T08:40:42.010Z,19.90
2018-09-17T08:41:46.407Z,20.00
2018-09-17T08:42:50.827Z,20.00
2018-09-17T08:43:54.998Z,20.10
2018-09-17T08:44:59.326Z,20.10
2018-09-17T08:46:03.708Z,20.10
2018-09-17T08:47:08.043Z,20.10
2018-09-17T08:48:12.319Z,20.10
2018-09-17T08:49:16.814Z,20.10
2018-09-17T08:50:21.366Z,20.10
2018-09-17T08:51:25.964Z,20.20
2018-09-17T08:52:30.242Z,20.20
2018-09-17T08:53:34.517Z,20.30
2018-09-17T08:54:44.145Z,20.30
2018-09-17T08:55:53.652Z,20.30
2018-09-17T08:56:59.424Z,20.30
2018-09-17T08:58:09.182Z,20.30
2018-09-17T08:59:18.725Z,20.40
2018-09-17T09:00:27.097Z,20.40
2018-09-17T09:01:36.626Z,20.40
2018-09-17T09:02:46.568Z,20.40
2018-09-17T09:04:56.140Z,20.50
2018-09-17T09:06:06.056Z,20.50
2018-09-17T09:07:15.445Z,20.60
2018-09-17T09:08:19.870Z,20.60
2018-09-17T09:09:24.322Z,20.60
2018-09-17T09:10:33.873Z,20.60
2018-09-17T09:11:43.710Z,20.70
2018-09-17T09:12:53.383Z,20.60
2018-09-17T09:14:02.023Z,20.70
2018-09-17T09:15:11.385Z,20.70
2018-09-17T09:16:15.765Z,20.80
2018-09-17T09:17:20.178Z,20.80
2018-09-17T09:18:24.774Z,20.90
2018-09-17T09:19:29.072Z,20.90
2018-09-17T09:20:33.821Z,20.90
2018-09-17T09:21:38.249Z,20.90
2018-09-17T09:22:42.413Z,20.90
2018-09-17T09:23:46.618Z,20.90
2018-09-17T09:24:51.052Z,21.00
2018-09-17T09:25:55.257Z,21.00
2018-09-17T09:26:59.728Z,21.10
2018-09-17T09:28:03.776Z,21.00
2018-09-17T09:29:08.012Z,21.00
2018-09-17T09:30:12.370Z,21.10
2018-09-17T09:31:16.812Z,21.10
2018-09-17T09:32:21.009Z,21.20
2018-09-17T09:33:25.271Z,21.20
2018-09-17T09:34:29.361Z,21.20
2018-09-17T09:35:33.570Z,21.20
2018-09-17T09:36:37.698Z,21.30
2018-09-17T09:37:41.855Z,21.40
2018-09-17T09:38:46.221Z,21.40
2018-09-17T09:39:50.688Z,21.40
2018-09-17T09:40:55.162Z,21.40
2018-09-17T09:41:59.428Z,21.30
2018-09-17T09:43:03.901Z,21.30
2018-09-17T09:44:08.275Z,21.30
2018-09-17T09:45:12.971Z,21.40
2018-09-17T09:46:17.247Z,21.50
2018-09-17T09:47:21.502Z,21.50
2018-09-17T09:48:25.934Z,21.60
2018-09-17T09:49:30.339Z,21.60
2018-09-17T09:50:34.879Z,21.50
2018-09-17T09:51:39.358Z,21.60
2018-09-17T09:52:43.579Z,21.60
2018-09-17T09:53:48.081Z,21.60
2018-09-17T09:54:52.780Z,21.60
2018-09-17T09:55:57.067Z,21.70
2018-09-17T09:57:01.369Z,21.70
2018-09-17T09:58:05.905Z,21.70
2018-09-17T09:59:10.522Z,21.70
2018-09-17T10:00:20.389Z,21.70
2018-09-17T10:01:26.606Z,21.70
2018-09-17T10:02:36.267Z,21.80
2018-09-17T10:03:42.617Z,21.80
2018-09-17T10:04:46.828Z,21.80
2018-09-17T10:05:51.242Z,21.70
2018-09-17T10:06:55.440Z,21.60
2018-09-17T10:07:59.621Z,21.70
2018-09-17T10:09:09.108Z,21.70
2018-09-17T10:10:18.910Z,21.70
2018-09-17T10:11:28.677Z,21.80
2018-09-17T10:12:38.311Z,21.80
2018-09-17T10:13:47.853Z,21.80
2018-09-17T10:14:57.296Z,21.80
2018-09-17T10:16:05.634Z,21.70
2018-09-17T10:17:15.412Z,21.70
2018-09-17T10:18:25.132Z,21.90
2018-09-17T10:19:29.579Z,22.00
2018-09-17T10:20:33.988Z,22.00
2018-09-17T10:21:38.445Z,22.10
2018-09-17T10:22:42.809Z,22.10
2018-09-17T10:23:47.479Z,22.10
2018-09-17T10:24:51.940Z,22.10
2018-09-17T10:25:56.310Z,22.10
2018-09-17T10:27:00.610Z,22.20
2018-09-17T10:28:04.823Z,22.20
2018-09-17T10:29:09.637Z,22.20
2018-09-17T10:30:14.043Z,22.20
2018-09-17T10:31:18.440Z,22.20
2018-09-17T10:32:22.870Z,22.30
2018-09-17T10:33:27.091Z,22.20
2018-09-17T10:34:31.181Z,22.30
2018-09-17T10:35:35.354Z,22.30
2018-09-17T10:36:39.790Z,22.30
2018-09-17T10:37:44.106Z,22.40
2018-09-17T10:38:48.469Z,22.40
2018-09-17T10:39:52.869Z,22.40
2018-09-17T10:40:57.126Z,22.40
2018-09-17T10:42:01.596Z,22.40
2018-09-17T10:43:06.130Z,22.50
2018-09-17T10:44:10.608Z,22.50
2018-09-17T10:45:15.281Z,22.50
2018-09-17T10:46:19.787Z,22.60
2018-09-17T10:47:24.175Z,22.60
2018-09-17T10:48:28.427Z,22.60
2018-09-17T10:49:32.632Z,22.60
2018-09-17T10:50:36.758Z,22.60
2018-09-17T10:51:40.865Z,22.60
2018-09-17T10:52:45.168Z,22.70
2018-09-17T10:53:49.367Z,22.70
2018-09-17T10:54:53.654Z,22.70
2018-09-17T10:55:58.122Z,22.70
2018-09-17T10:57:02.490Z,22.60
2018-09-17T10:58:06.749Z,22.70
2018-09-17T10:59:10.949Z,22.70
2018-09-17T11:00:15.403Z,22.70
2018-09-17T11:01:19.996Z,22.70
2018-09-17T11:02:24.260Z,22.80
2018-09-17T11:03:28.457Z,22.80
2018-09-17T11:04:32.623Z,22.80
2018-09-17T11:05:36.741Z,22.90
2018-09-17T11:06:41.033Z,22.90
2018-09-17T11:07:45.516Z,22.80
2018-09-17T11:08:49.919Z,22.90
2018-09-17T11:09:54.467Z,22.90
2018-09-17T11:10:58.828Z,22.90
2018-09-17T11:12:03.052Z,22.90
2018-09-17T11:13:07.282Z,23.00
2018-09-17T11:14:11.741Z,23.00
2018-09-17T11:15:15.925Z,23.00
2018-09-17T11:16:20.293Z,23.10
2018-09-17T11:17:25.087Z,23.10
2018-09-17T11:18:29.361Z,23.10
2018-09-17T11:19:34.024Z,23.10
2018-09-17T11:20:38.474Z,23.20
2018-09-17T11:21:43.019Z,23.20
2018-09-17T11:22:47.145Z,23.30
2018-09-17T11:23:51.531Z,23.30
2018-09-17T11:24:56.050Z,23.30
2018-09-17T11:26:00.277Z,23.30
2018-09-17T11:27:04.489Z,23.30
2018-09-17T11:28:08.607Z,23.40
2018-09-17T11:29:12.695Z,23.40
2018-09-17T11:30:17.048Z,23.50
2018-09-17T11:31:21.824Z,23.60
2018-09-17T11:32:25.979Z,23.60
2018-09-17T11:33:30.236Z,23.60
2018-09-17T11:34:34.438Z,23.60
2018-09-17T11:35:38.882Z,23.50
2018-09-17T11:36:43.519Z,23.60
2018-09-17T11:37:48.181Z,23.60
2018-09-17T11:38:52.262Z,23.60
2018-09-17T11:39:56.767Z,23.60
2018-09-17T11:41:01.232Z,23.70
2018-09-17T11:42:05.345Z,23.80
2018-09-17T11:43:09.793Z,23.80
2018-09-17T11:44:14.032Z,23.70
2018-09-17T11:45:18.509Z,23.60
2018-09-17T11:46:22.774Z,23.70
2018-09-17T11:47:27.030Z,23.60
2018-09-17T11:48:31.305Z,23.60
2018-09-17T11:49:35.553Z,23.60
2018-09-17T11:50:39.749Z,23.60
2018-09-17T11:51:44.010Z,23.60
2018-09-17T11:52:48.200Z,23.70
2018-09-17T11:53:52.407Z,23.80
2018-09-17T11:54:56.497Z,23.80
2018-09-17T11:56:01.101Z,24.00
2018-09-17T11:57:05.555Z,24.00
2018-09-17T11:58:09.801Z,24.10
2018-09-17T11:59:14.066Z,24.10
2018-09-17T12:00:23.653Z,24.10
2018-09-17T12:01:33.437Z,24.00
2018-09-17T12:02:38.278Z,24.00
2018-09-17T12:03:47.589Z,24.00
2018-09-17T12:04:57.215Z,24.00
2018-09-17T12:06:03.028Z,24.10
2018-09-17T12:07:12.502Z,24.20
2018-09-17T12:08:18.345Z,24.20
2018-09-17T12:09:22.898Z,24.20
2018-09-17T12:10:26.890Z,24.20
2018-09-17T12:11:31.681Z,24.30
2018-09-17T12:12:36.585Z,24.40
2018-09-17T12:13:40.697Z,24.40
2018-09-17T12:14:44.939Z,24.40
2018-09-17T12:15:49.355Z,24.40
2018-09-17T12:16:53.617Z,24.50
2018-09-17T12:17:57.752Z,24.50
2018-09-17T12:19:01.994Z,24.40
2018-09-17T12:20:06.311Z,24.40
2018-09-17T12:21:10.541Z,24.50
2018-09-17T12:22:14.953Z,24.50
2018-09-17T12:23:19.024Z,24.50
2018-09-17T12:24:23.327Z,24.50
2018-09-17T12:25:27.542Z,24.40
2018-09-17T12:26:32.023Z,24.30
2018-09-17T12:27:36.285Z,24.40
2018-09-17T12:28:40.459Z,24.60
2018-09-17T12:29:44.847Z,24.60
2018-09-17T12:30:49.303Z,24.70
2018-09-17T12:31:53.643Z,24.80
2018-09-17T12:32:58.133Z,24.80
2018-09-17T12:34:02.438Z,24.90
2018-09-17T12:35:06.575Z,25.00
2018-09-17T12:36:11.162Z,25.10
2018-09-17T12:37:15.688Z,25.10
2018-09-17T12:38:19.831Z,25.10
2018-09-17T12:39:24.067Z,25.00
2018-09-17T12:40:28.730Z,25.10
2018-09-17T12:41:33.050Z,25.10
2018-09-17T12:42:37.560Z,25.00
2018-09-17T12:43:41.838Z,25.00
2018-09-17T12:44:46.127Z,24.80
2018-09-17T12:45:50.839Z,24.70
2018-09-17T12:46:55.084Z,24.60
2018-09-17T12:47:59.360Z,24.50
2018-09-17T12:49:03.512Z,24.40
2018-09-17T12:50:07.719Z,24.40
2018-09-17T12:51:12.004Z,24.50
2018-09-17T12:52:16.346Z,24.60
2018-09-17T12:53:20.496Z,24.80
2018-09-17T12:54:24.810Z,25.00
2018-09-17T12:55:28.918Z,25.20
2018-09-17T12:56:33.212Z,25.40
2018-09-17T12:57:37.778Z,25.50
2018-09-17T12:58:42.138Z,25.60
2018-09-17T12:59:46.390Z,25.70
2018-09-17T13:00:50.621Z,25.80
2018-09-17T13:01:54.909Z,25.90
2018-09-17T13:02:59.308Z,26.00
2018-09-17T13:04:03.547Z,26.10
2018-09-17T13:05:08.015Z,26.20
2018-09-17T13:06:12.146Z,26.30
2018-09-17T13:07:17.861Z,26.40
2018-09-17T13:08:22.111Z,26.40
2018-09-17T13:09:26.443Z,26.50
2018-09-17T13:10:30.772Z,26.40
2018-09-17T13:11:34.986Z,26.40
2018-09-17T13:12:39.257Z,26.40
2018-09-17T13:13:43.633Z,26.50
2018-09-17T13:14:48.149Z,26.60
2018-09-17T13:15:52.374Z,26.70
2018-09-17T13:16:57.112Z,26.80
2018-09-17T13:18:01.365Z,26.90
2018-09-17T13:19:06.270Z,27.00
2018-09-17T13:20:10.561Z,27.10
2018-09-17T13:21:14.960Z,27.10
2018-09-17T13:22:19.186Z,26.90
2018-09-17T13:23:23.618Z,26.70
2018-09-17T13:24:27.941Z,26.50
2018-09-17T13:25:32.215Z,26.40
2018-09-17T13:26:37.725Z,26.20
2018-09-17T13:27:42.286Z,26.10
2018-09-17T13:28:46.634Z,26.00
2018-09-17T13:29:51.026Z,26.00
2018-09-17T13:30:55.369Z,25.90
2018-09-17T13:31:59.672Z,26.00
2018-09-17T13:33:04.101Z,26.00
2018-09-17T13:34:08.196Z,26.10
2018-09-17T13:35:12.567Z,26.20
2018-09-17T13:36:16.849Z,26.50
2018-09-17T13:37:21.083Z,26.90
2018-09-17T13:38:25.562Z,27.00
2018-09-17T13:39:30.106Z,27.10
2018-09-17T13:40:34.490Z,27.00
2018-09-17T13:41:38.984Z,26.70
2018-09-17T13:42:43.333Z,26.50
2018-09-17T13:43:47.575Z,26.40
2018-09-17T13:44:51.751Z,26.60
2018-09-17T13:45:55.976Z,26.90
2018-09-17T13:47:00.254Z,27.20
2018-09-17T13:48:04.518Z,27.60
2018-09-17T13:49:08.724Z,27.80
2018-09-17T13:50:13.071Z,28.00
2018-09-17T13:51:17.201Z,28.10
2018-09-17T13:52:21.746Z,28.20
2018-09-17T13:53:26.070Z,28.30
2018-09-17T13:54:30.360Z,28.40
2018-09-17T13:55:34.885Z,28.40
2018-09-17T13:56:39.326Z,28.50
2018-09-17T13:57:43.886Z,28.70
2018-09-17T13:58:48.146Z,28.80